createdAt,value
2023-03-11T00:04:02.864Z,1.30
2023-03-11T00:09:05.196Z,1.20
2023-03-11T00:14:07.193Z,1.23
2023-03-11T00:19:10.651Z,1.10
2023-03-11T00:24:12.436Z,1.08
2023-03-11T00:29:14.070Z,1.13
2023-03-11T00:34:16.252Z,1.00
2023-03-11T00:39:18.022Z,1.20
2023-03-11T00:44:19.740Z,1.48
2023-03-11T00:49:21.614Z,1.20
2023-03-11T00:54:23.771Z,1.13
2023-03-11T00:59:25.598Z,1.20
2023-03-11T01:04:27.344Z,1.23
2023-03-11T01:09:29.217Z,1.53
2023-03-11T01:14:30.917Z,1.43
2023-03-11T01:19:32.684Z,1.60
2023-03-11T01:24:34.346Z,1.38
2023-03-11T01:29:36.297Z,1.60
2023-03-11T01:34:38.831Z,1.45
2023-03-11T01:39:40.593Z,1.70
2023-03-11T01:44:42.539Z,1.70
2023-03-11T01:49:44.397Z,1.87
2023-03-11T01:54:46.310Z,1.77
2023-03-11T01:59:51.912Z,1.57
2023-03-11T02:04:54.751Z,1.60
2023-03-11T02:09:59.140Z,1.70
2023-03-11T02:15:02.040Z,1.70
2023-03-11T02:20:12.556Z,1.90
2023-03-11T02:25:24.587Z,2.00
2023-03-11T02:30:27.787Z,1.75
2023-03-11T02:35:31.478Z,1.80
2023-03-11T02:41:01.710Z,1.58
2023-03-11T02:46:06.842Z,1.65
2023-03-11T02:51:08.817Z,1.42
2023-03-11T02:56:11.864Z,1.70
2023-03-11T03:01:14.179Z,1.70
2023-03-11T03:06:19.333Z,1.58
2023-03-11T03:11:21.094Z,1.43
2023-03-11T03:16:23.575Z,1.35
2023-03-11T03:21:25.447Z,1.53
2023-03-11T03:26:28.197Z,1.58
2023-03-11T03:31:30.252Z,1.70
2023-03-11T03:36:33.124Z,1.40
2023-03-11T03:41:38.199Z,1.42
2023-03-11T03:46:41.672Z,1.40
2023-03-11T03:51:44.924Z,1.20
2023-03-11T03:56:54.934Z,1.23
2023-03-11T04:01:57.945Z,1.27
2023-03-11T04:07:00.957Z,1.40
2023-03-11T04:12:03.302Z,0.90
2023-03-11T04:17:10.887Z,1.02
2023-03-11T04:22:12.960Z,1.20
2023-03-11T04:27:14.882Z,1.00
2023-03-11T04:32:16.753Z,0.90
2023-03-11T04:37:19.953Z,1.00
2023-03-11T04:42:21.868Z,1.30
2023-03-11T04:47:24.462Z,1.20
2023-03-11T04:52:26.430Z,1.27
2023-03-11T04:57:28.809Z,1.27
2023-03-11T05:02:32.156Z,1.15
2023-03-11T05:07:36.948Z,1.00
2023-03-11T05:12:39.954Z,1.50
2023-03-11T05:22:44.787Z,1.30
2023-03-11T05:27:46.632Z,1.20
2023-03-11T05:32:50.074Z,1.30
2023-03-11T05:37:54.749Z,1.30
2023-03-11T05:42:57.650Z,1.20
2023-03-11T05:48:00.946Z,1.42
2023-03-11T05:53:02.700Z,1.00
2023-03-11T05:58:06.131Z,1.60
2023-03-11T06:03:09.078Z,1.27
2023-03-11T06:13:12.708Z,1.60
2023-03-11T06:18:26.798Z,1.55
2023-03-11T06:23:30.056Z,1.60
2023-03-11T06:28:33.926Z,1.60
2023-03-11T06:33:35.918Z,1.30
2023-03-11T06:38:37.696Z,1.47
2023-03-11T06:43:39.755Z,1.50
2023-03-11T06:48:42.578Z,1.58
2023-03-11T06:53:49.239Z,1.60
2023-03-11T06:58:51.834Z,1.35
2023-03-11T07:03:53.689Z,1.50
2023-03-11T07:08:57.392Z,1.40
2023-03-11T07:13:59.391Z,1.40
2023-03-11T07:19:04.814Z,1.50
2023-03-11T07:24:06.792Z,1.50
2023-03-11T07:29:10.168Z,1.90
2023-03-11T07:34:12.871Z,1.60
2023-03-11T07:39:17.766Z,1.52
2023-03-11T07:44:19.533Z,1.33
2023-03-11T07:49:21.253Z,2.03
2023-03-11T07:54:22.935Z,1.80
2023-03-11T07:59:25.630Z,1.60
2023-03-11T08:09:29.397Z,1.60
2023-03-11T08:14:31.095Z,1.43
2023-03-11T08:19:32.833Z,1.53
2023-03-11T08:24:35.690Z,1.80
2023-03-11T08:29:37.628Z,1.73
2023-03-11T08:34:40.002Z,1.93
2023-03-11T08:39:41.856Z,2.00
2023-03-11T08:44:44.152Z,2.33
2023-03-11T08:49:45.848Z,1.67
2023-03-11T08:54:47.606Z,2.03
2023-03-11T08:59:49.341Z,1.90
2023-03-11T09:04:51.490Z,1.77
2023-03-11T09:09:54.667Z,1.88
2023-03-11T09:14:56.621Z,2.25
2023-03-11T09:19:58.436Z,1.70
2023-03-11T09:25:00.152Z,1.80
2023-03-11T09:30:04.923Z,2.27
2023-03-11T09:35:06.900Z,1.65
2023-03-11T09:40:11.760Z,2.00
2023-03-11T09:45:13.408Z,1.60
2023-03-11T09:50:24.955Z,1.48
2023-03-11T09:55:39.699Z,1.80
2023-03-11T10:00:42.024Z,1.92
2023-03-11T10:05:46.057Z,1.92
2023-03-11T10:10:54.213Z,1.80
2023-03-11T10:16:23.580Z,1.60
2023-03-11T10:21:59.451Z,2.08
2023-03-11T10:27:14.377Z,2.00
2023-03-11T10:32:34.099Z,1.80
2023-03-11T10:37:49.867Z,2.08
2023-03-11T10:42:54.173Z,1.67
2023-03-11T10:47:57.916Z,1.90
2023-03-11T10:53:10.026Z,1.50
2023-03-11T10:58:14.587Z,1.70
2023-03-11T11:03:21.720Z,1.80
2023-03-11T11:08:23.806Z,2.60
2023-03-11T11:13:30.090Z,1.60
2023-03-11T11:18:42.416Z,1.60
2023-03-11T11:23:48.731Z,1.77
2023-03-11T11:29:09.511Z,2.03
2023-03-11T11:34:26.821Z,1.75
2023-03-11T11:39:33.060Z,1.65
2023-03-11T11:44:35.020Z,1.75
2023-03-11T11:49:38.020Z,1.27
2023-03-11T11:54:48.940Z,1.40
2023-03-11T11:59:50.772Z,1.40
2023-03-11T12:04:56.181Z,1.47
2023-03-11T12:10:22.875Z,1.63
2023-03-11T12:15:33.723Z,1.70
2023-03-11T12:20:42.414Z,1.85
2023-03-11T12:25:59.094Z,1.98
2023-03-11T12:31:04.840Z,2.05
2023-03-11T12:36:10.233Z,1.95
2023-03-11T12:41:15.042Z,2.08
2023-03-11T12:46:17.912Z,1.92
2023-03-11T12:51:33.739Z,1.80
2023-03-11T12:56:50.364Z,1.80
2023-03-11T13:01:58.275Z,1.60
2023-03-11T13:07:18.999Z,1.88
2023-03-11T13:12:42.944Z,1.30
2023-03-11T13:18:02.185Z,1.70
2023-03-11T13:23:12.942Z,1.67
2023-03-11T13:28:29.803Z,1.50
2023-03-11T13:33:53.128Z,1.70
2023-03-11T13:39:10.557Z,1.80
2023-03-11T13:44:37.194Z,1.88
2023-03-11T13:50:00.127Z,1.80
2023-03-11T13:55:14.170Z,1.70
2023-03-11T14:00:18.511Z,1.52
2023-03-11T14:05:27.628Z,1.85
2023-03-11T14:10:30.991Z,1.73
2023-03-11T14:15:43.737Z,1.90
2023-03-11T14:20:48.230Z,1.90
2023-03-11T14:25:58.401Z,1.92
2023-03-11T14:31:02.093Z,1.70
2023-03-11T14:36:11.509Z,1.70
2023-03-11T14:41:17.302Z,1.70
2023-03-11T14:46:27.280Z,1.70
2023-03-11T14:51:34.077Z,2.20
2023-03-11T14:56:41.672Z,3.05
2023-03-11T15:01:47.678Z,1.80
2023-03-11T15:06:50.503Z,2.00
2023-03-11T15:11:58.383Z,2.10
2023-03-11T15:17:41.296Z,1.70
2023-03-11T15:22:45.788Z,1.67
2023-03-11T15:27:47.605Z,1.80
2023-03-11T15:32:50.082Z,1.80
2023-03-11T15:38:25.239Z,1.92
2023-03-11T15:43:30.751Z,1.80
2023-03-11T15:48:32.525Z,2.00
2023-03-11T15:53:34.244Z,2.10
2023-03-11T15:58:38.180Z,2.10
2023-03-11T16:03:40.118Z,1.88
2023-03-11T16:08:44.454Z,2.03
2023-03-11T16:13:55.153Z,2.20
2023-03-11T16:18:57.090Z,2.38
2023-03-11T16:23:59.187Z,1.80
2023-03-11T16:29:12.664Z,2.20
2023-03-11T16:34:21.114Z,2.10
2023-03-11T16:39:22.791Z,2.00
2023-03-11T16:44:24.675Z,2.70
2023-03-11T16:49:26.486Z,1.90
2023-03-11T16:54:28.190Z,1.80
2023-03-11T16:59:30.201Z,1.80
2023-03-11T17:04:31.989Z,2.10
2023-03-11T17:09:35.490Z,2.37
2023-03-11T17:14:39.008Z,1.98
2023-03-11T17:19:40.803Z,1.90
2023-03-11T17:24:42.889Z,2.70
2023-03-11T17:29:44.748Z,2.30
2023-03-11T17:34:46.497Z,1.85
2023-03-11T17:39:48.631Z,2.67
2023-03-11T17:44:55.887Z,2.65
2023-03-11T17:49:57.747Z,2.58
2023-03-11T17:54:59.638Z,1.95
2023-03-11T18:00:05.617Z,2.63
2023-03-11T18:05:11.165Z,2.03
2023-03-11T18:10:14.387Z,1.60
2023-03-11T18:15:19.164Z,1.48
2023-03-11T18:20:21.250Z,1.88
2023-03-11T18:25:22.934Z,1.70
2023-03-11T18:30:24.761Z,1.60
2023-03-11T18:35:26.509Z,1.80
2023-03-11T18:40:28.364Z,1.60
2023-03-11T18:45:30.247Z,1.63
2023-03-11T18:50:32.303Z,1.67
2023-03-11T18:55:35.293Z,1.67
2023-03-11T19:00:36.947Z,1.55
2023-03-11T19:05:39.660Z,1.55
2023-03-11T19:10:42.879Z,1.50
2023-03-11T19:15:45.041Z,1.70
2023-03-11T19:20:56.491Z,1.50
2023-03-11T19:26:03.679Z,2.10
2023-03-11T19:31:05.870Z,2.00
2023-03-11T19:36:08.874Z,2.13
2023-03-11T19:41:18.505Z,2.40
2023-03-11T19:46:22.253Z,1.50
2023-03-11T19:51:26.649Z,1.80
2023-03-11T19:56:31.405Z,1.80
2023-03-11T20:01:33.161Z,1.92
2023-03-11T20:06:35.230Z,1.80
2023-03-11T20:11:39.975Z,1.88
2023-03-11T20:16:41.926Z,1.75
2023-03-11T20:21:45.789Z,2.20
2023-03-11T20:26:50.060Z,1.80
2023-03-11T20:31:53.102Z,2.15
2023-03-11T20:36:55.414Z,2.13
2023-03-11T20:41:57.303Z,2.30
2023-03-11T20:46:59.366Z,1.90
2023-03-11T20:52:02.933Z,2.17
2023-03-11T20:57:04.955Z,2.08
2023-03-11T21:02:07.199Z,2.38
2023-03-11T21:07:09.011Z,2.38
2023-03-11T21:12:10.990Z,2.27
2023-03-11T21:17:12.975Z,2.40
2023-03-11T21:22:14.861Z,2.42
2023-03-11T21:27:16.786Z,2.63
2023-03-11T21:32:19.041Z,2.47
2023-03-11T21:37:20.808Z,2.65
2023-03-11T21:42:22.544Z,2.77
2023-03-11T21:47:24.387Z,2.60
2023-03-11T21:52:26.697Z,2.67
2023-03-11T21:57:28.511Z,3.22
2023-03-11T22:02:30.228Z,3.07
2023-03-11T22:07:32.125Z,3.10
2023-03-11T22:12:34.234Z,3.33
2023-03-11T22:17:36.371Z,2.92
2023-03-11T22:22:38.360Z,3.40
2023-03-11T22:27:40.350Z,3.60
2023-03-11T22:32:42.148Z,3.40
2023-03-11T22:37:43.953Z,3.57
2023-03-11T22:42:45.676Z,3.30
2023-03-11T22:47:47.891Z,3.50
2023-03-11T22:52:49.742Z,3.75
2023-03-11T22:57:51.483Z,4.50
2023-03-11T23:02:55.629Z,4.13
2023-03-11T23:07:57.404Z,4.60
2023-03-11T23:12:59.161Z,4.07
2023-03-11T23:18:00.857Z,3.73
2023-03-11T23:23:03.527Z,4.47
2023-03-11T23:28:05.774Z,4.47
2023-03-11T23:33:07.482Z,4.47
2023-03-11T23:38:09.319Z,4.43
2023-03-11T23:43:11.206Z,4.30
2023-03-11T23:48:12.963Z,4.90
2023-03-11T23:53:15.881Z,4.40
2023-03-11T23:58:18.814Z,4.57
